地図

経路データ

SID SEASON NUMBER BASIN SUBBASIN NAME ISO_TIME NATURE LAT LON WMO_WIND WMO_PRES WMO_AGENCY TRACK_TYPE DIST2LAND LANDFALL IFLAG USA_AGENCY USA_ATCF_ID USA_LAT USA_LON USA_RECORD USA_STATUS USA_WIND USA_PRES USA_SSHS USA_R34_NE USA_R34_SE USA_R34_SW USA_R34_NW USA_R50_NE USA_R50_SE USA_R50_SW USA_R50_NW USA_R64_NE USA_R64_SE USA_R64_SW USA_R64_NW USA_POCI USA_ROCI USA_RMW USA_EYE TOKYO_LAT TOKYO_LON TOKYO_GRADE TOKYO_WIND TOKYO_PRES TOKYO_R50_DIR TOKYO_R50_LONG TOKYO_R50_SHORT TOKYO_R30_DIR TOKYO_R30_LONG TOKYO_R30_SHORT TOKYO_LAND CMA_LAT CMA_LON CMA_CAT CMA_WIND CMA_PRES HKO_LAT HKO_LON HKO_CAT HKO_WIND HKO_PRES NEWDELHI_LAT NEWDELHI_LON NEWDELHI_GRADE NEWDELHI_WIND NEWDELHI_PRES NEWDELHI_CI NEWDELHI_DP NEWDELHI_POCI REUNION_LAT REUNION_LON REUNION_TYPE REUNION_WIND REUNION_PRES REUNION_TNUM REUNION_CI REUNION_RMW REUNION_R34_NE REUNION_R34_SE REUNION_R34_SW REUNION_R34_NW REUNION_R50_NE REUNION_R50_SE REUNION_R50_SW REUNION_R50_NW REUNION_R64_NE REUNION_R64_SE REUNION_R64_SW REUNION_R64_NW BOM_LAT BOM_LON BOM_TYPE BOM_WIND BOM_PRES BOM_TNUM BOM_CI BOM_RMW BOM_R34_NE BOM_R34_SE BOM_R34_SW BOM_R34_NW BOM_R50_NE BOM_R50_SE BOM_R50_SW BOM_R50_NW BOM_R64_NE BOM_R64_SE BOM_R64_SW BOM_R64_NW BOM_ROCI BOM_POCI BOM_EYE BOM_POS_METHOD BOM_PRES_METHOD NADI_LAT NADI_LON NADI_CAT NADI_WIND NADI_PRES WELLINGTON_LAT WELLINGTON_LON WELLINGTON_WIND WELLINGTON_PRES DS824_LAT DS824_LON DS824_STAGE DS824_WIND DS824_PRES TD9636_LAT TD9636_LON TD9636_STAGE TD9636_WIND TD9636_PRES TD9635_LAT TD9635_LON TD9635_WIND TD9635_PRES TD9635_ROCI NEUMANN_LAT NEUMANN_LON NEUMANN_CLASS NEUMANN_WIND NEUMANN_PRES MLC_LAT MLC_LON MLC_CLASS MLC_WIND MLC_PRES USA_GUST BOM_GUST BOM_GUST_PER REUNION_GUST REUNION_GUST_PER USA_SEAHGT USA_SEARAD_NE USA_SEARAD_SE USA_SEARAD_SW USA_SEARAD_NW STORM_SPEED STORM_DIR
1954326N12157 1954 93 WP MM TILDA 1954-11-22 00:00:00 TS 11.5000 157.100 main 1732 1719 O________OOO__ jtwc_wp WP191954 11.5000 157.100 20 -1 11.5000 157.100 TC 20 11.5000 157.100 1 20 11.5000 157.100 20 1002 60 6 260
1954326N12157 1954 93 WP MM TILDA 1954-11-22 03:00:00 TS 11.4480 156.801 main 1709 1697 P________PPP__ WP191954 11.4550 156.810 20 -1 11.4550 156.810 TC 20 11.4268 156.775 1 20 11.4550 156.810 20 1002 60 6 260
1954326N12157 1954 93 WP MM TILDA 1954-11-22 06:00:00 TS 11.3907 156.487 main 1697 1674 O________OPO__ jtwc_wp WP191954 11.4000 156.500 20 -1 11.4000 156.500 TC 20 11.3628 156.450 1 20 11.4000 156.500 20 1003 60 7 260
1954326N12157 1954 93 WP MM TILDA 1954-11-22 09:00:00 TS 11.3306 156.149 main 1670 1659 P________PPP__ WP191954 11.3350 156.157 20 -1 11.3350 156.157 TC 20 11.3173 156.125 1 20 11.3350 156.157 20 1003 60 7 262
1954326N12157 1954 93 WP MM TILDA 1954-11-22 12:00:00 TS 11.3000 155.800 main 1659 1649 O________OOO__ jtwc_wp WP191954 11.3000 155.800 20 -1 11.3000 155.800 TC 20 11.3000 155.800 1 20 11.3000 155.800 20 1004 60 7 270
1954326N12157 1954 93 WP MM TILDA 1954-11-22 15:00:00 TS 11.3305 155.451 main 1649 1642 P________PPP__ WP191954 11.3350 155.443 20 -1 11.3350 155.443 TC 20 11.3171 155.475 1 20 11.3350 155.443 20 1004 60 7 278
1954326N12157 1954 93 WP MM TILDA 1954-11-22 18:00:00 TS 11.3906 155.113 main 1646 1637 O________OPO__ jtwc_wp WP191954 11.4000 155.100 20 -1 11.4000 155.100 TC 20 11.3624 155.150 1 20 11.4000 155.100 20 1005 60 6 280
1954326N12157 1954 93 WP MM TILDA 1954-11-22 21:00:00 TS 11.4384 154.806 main 1637 1637 P________PPP__ WP191954 11.4424 154.800 20 -1 11.4424 154.800 TC 20 11.4265 154.825 1 20 11.4424 154.800 20 1005 60 6 280
1954326N12157 1954 93 WP MM TILDA 1954-11-23 00:00:00 TS 11.5000 154.500 main 1640 1634 O________OOO__ jtwc_wp WP191954 11.5000 154.500 20 -1 11.5000 154.500 TC 20 11.5000 154.500 1 20 11.5000 154.500 20 1006 60 7 283
1954326N12157 1954 93 WP MM TILDA 1954-11-23 03:00:00 TS 11.5909 154.156 main 1643 1638 P________PPP__ WP191954 11.6000 154.150 25 -1 11.6000 154.150 TC 25 11.5636 154.175 1 22 11.6000 154.150 25 1005 60 7 285
1954326N12157 1954 93 WP MM TILDA 1954-11-23 06:00:00 TS 11.6837 153.812 main 1645 1638 O________OPO__ jtwc_wp WP191954 11.7000 153.800 30 -1 11.7000 153.800 TC 30 11.6349 153.850 1 25 11.7000 153.800 30 1005 60 7 283
1954326N12157 1954 93 WP MM TILDA 1954-11-23 09:00:00 TS 11.7408 153.506 main 1638 1638 P________PPP__ WP191954 11.7499 153.500 30 -1 11.7499 153.500 TC 30 11.7136 153.525 1 27 11.7499 153.500 30 1005 60 6 281
1954326N12157 1954 93 WP MM TILDA 1954-11-23 12:00:00 TS 11.8000 153.200 main 1644 1641 O________OOO__ jtwc_wp WP191954 11.8000 153.200 30 -1 11.8000 153.200 TC 30 11.8000 153.200 1 30 11.8000 153.200 30 1005 60 7 284
1954326N12157 1954 93 WP MM TILDA 1954-11-23 15:00:00 TS 11.8956 152.858 main 1650 1647 P________PPP__ WP191954 11.8925 152.850 30 -1 11.8925 152.850 TC 30 11.9048 152.883 1 31 11.8925 152.850 30 1004 60 7 287
1954326N12157 1954 93 WP MM TILDA 1954-11-23 18:00:00 TS 12.0037 152.516 main 1656 1655 O________OPO__ jtwc_wp WP191954 12.0000 152.500 30 -1 12.0000 152.500 TC 30 12.0147 152.565 1 33 12.0000 152.500 30 1004 60 7 289
1954326N12157 1954 93 WP MM TILDA 1954-11-23 21:00:00 TS 12.1099 152.210 main 1664 1663 P________PPP__ WP191954 12.1074 152.200 32 -1 12.1074 152.200 TC 32 12.1173 152.239 1 34 12.1074 152.200 33 1004 60 6 288
1954326N12157 1954 93 WP MM TILDA 1954-11-24 00:00:00 TS 12.2000 151.900 main 1673 1671 O________OOO__ jtwc_wp WP191954 12.2000 151.900 35 0 12.2000 151.900 TC 35 12.2000 151.900 2 36 12.2000 151.900 36 1004 60 7 284
1954326N12157 1954 93 WP MM TILDA 1954-11-24 03:00:00 TS 12.2644 151.557 main 1678 1664 P________PPP__ WP191954 12.2650 151.565 37 0 12.2650 151.565 TC 37 12.2628 151.531 2 37 12.2650 151.565 38 1004 60 8 277
1954326N12157 1954 93 WP MM TILDA 1954-11-24 06:00:00 TS 12.2950 151.106 1004 tokyo main 1664 1654 OOO______OPO__ jtwc_wp WP191954 12.3000 151.200 40 0 12.0000 150.400 2 1004 0 0 0 12.5000 150.500 1 29 1004 12.3000 151.200 TC 40 12.3025 151.150 2 38 12.3000 151.200 40 1004 60 9 273
1954326N12157 1954 93 WP MM TILDA 1954-11-24 09:00:00 TS 12.3027 150.676 main 1654 1644 PPP______PPP__ WP191954 12.3225 150.793 40 0 12.0000 150.215 2 1004 0 0 12.4600 150.253 1 29 1003 12.3225 150.793 TC 40 12.3159 150.769 2 39 12.3225 150.793 40 1003 90 8 268
1954326N12157 1954 93 WP MM TILDA 1954-11-24 12:00:00 TS 12.2727 150.291 1004 tokyo main 1644 1627 OOO______OOO__ jtwc_wp WP191954 12.3000 150.400 40 0 12.0000 150.000 2 1004 0 0 0 12.4000 150.000 1 29 1003 12.3000 150.400 TC 40 12.3000 150.400 2 40 12.3000 150.400 40 1003 120 7 261
1954326N12157 1954 93 WP MM TILDA 1954-11-24 15:00:00 TS 12.1979 149.970 main 1627 1611 PPP______PPP__ WP191954 12.2074 150.092 40 0 12.0000 149.743 2 1002 0 0 12.3075 149.742 1 33 1002 12.2074 150.092 TC 40 12.2576 150.056 2 40 12.2074 150.092 40 1002 120 6 255
1954326N12157 1954 93 WP MM TILDA 1954-11-24 18:00:00 TS 12.1145 149.688 1001 tokyo main 1611 1606 OOO______OPO__ jtwc_wp WP191954 12.1000 149.800 40 0 12.0000 149.500 2 1001 0 0 0 12.2000 149.500 2 38 1002 12.1000 149.800 TC 40 12.1873 149.727 2 40 12.1000 149.800 40 1002 120 6 257
1954326N12157 1954 93 WP MM TILDA 1954-11-24 21:00:00 TS 12.0668 149.390 main 1606 1590 PPP______PPP__ WP191954 12.0576 149.435 40 0 12.0224 149.343 2 1001 0 0 12.1075 149.285 2 38 1001 12.0576 149.435 TC 40 12.0983 149.410 2 40 12.0576 149.435 40 1001 150 6 258
1954326N12157 1954 93 WP MM TILDA 1954-11-25 00:00:00 TS 12.0000 149.117 1001 tokyo main 1590 1577 OOO______OOO__ jtwc_wp WP191954 12.0000 149.100 40 0 12.0000 149.200 2 1001 0 0 0 12.0000 149.100 2 38 1001 12.0000 149.100 TC 40 12.0000 149.100 2 40 12.0000 149.100 40 1001 180 5 246
1954326N12157 1954 93 WP MM TILDA 1954-11-25 03:00:00 TS 11.8552 148.915 main 1577 1552 PPP______PPP__ WP191954 11.8498 148.908 45 0 11.8575 149.007 2 1000 0 0 11.8500 148.950 2 43 1000 11.8498 148.908 TC 45 11.8744 148.809 2 42 11.8498 148.908 45 1000 180 5 234
1954326N12157 1954 93 WP MM TILDA 1954-11-25 06:00:00 TS 11.7079 148.704 999 tokyo main 1552 1538 OOO______OPO__ jtwc_wp WP191954 11.7000 148.700 50 0 11.7000 148.800 9 999 0 0 0 11.7000 148.800 3 48 999 11.7000 148.700 TC 50 11.7471 148.522 2 45 11.7000 148.700 50 999 180 5 243
1954326N12157 1954 93 WP MM TILDA 1954-11-25 09:00:00 TS 11.6060 148.422 main 1538 1536 PPP______PPP__ WP191954 11.6050 148.330 50 0 11.6123 148.660 9 999 0 0 11.5623 148.660 3 48 999 11.6050 148.330 TC 50 11.6463 148.224 2 47 11.6050 148.330 50 999 180 6 259
1954326N12157 1954 93 WP MM TILDA 1954-11-25 12:00:00 TS 11.5833 148.067 999 tokyo main 1536 1535 OOO______OOO__ jtwc_wp WP191954 11.6000 147.900 50 0 11.6000 148.400 9 999 0 0 0 11.5000 148.400 3 48 999 11.6000 147.900 TC 50 11.6000 147.900 2 50 11.6000 147.900 50 999 180 8 275
1954326N12157 1954 93 WP MM TILDA 1954-11-25 15:00:00 TS 11.6786 147.626 main 1546 1546 PPP______PPP__ WP191954 11.7349 147.500 50 0 11.6778 147.838 9 999 0 0 11.5627 147.895 3 48 998 11.7349 147.500 TC 50 11.6263 147.525 2 55 11.7349 147.500 50 998 180 9 285
1954326N12157 1954 93 WP MM TILDA 1954-11-25 18:00:00 TS 11.8183 147.154 999 tokyo main 1557 1557 OOO______OPO__ jtwc_wp WP191954 11.9000 147.100 50 0 11.8000 147.200 9 999 0 0 0 11.7000 147.300 3 48 998 11.9000 147.100 TC 50 11.7101 147.123 2 60 11.9000 147.100 50 998 180 9 284
1954326N12157 1954 93 WP MM TILDA 1954-11-25 21:00:00 TS 11.9064 146.714 main 1568 1568 PPP______PPP__ WP191954 11.9500 146.692 60 0 11.8998 146.720 9 996 0 0 11.8499 146.778 3 58 995 11.9500 146.692 TC 60 11.8388 146.709 2 65 11.9500 146.692 60 995 150 9 282
1954326N12157 1954 93 WP MM TILDA 1954-11-26 00:00:00 TS 12.0000 146.300 993 tokyo main 1580 1580 OOO______OOO__ jtwc_wp WP191954 12.0000 146.300 70 1 12.0000 146.300 9 993 0 0 0 12.0000 146.300 4 68 993 12.0000 146.300 TC 70 12.0000 146.300 3 70 12.0000 146.300 70 993 120 8 286
1954326N12157 1954 93 WP MM TILDA 1954-11-26 03:00:00 TS 12.1261 145.933 main 1592 1592 PPP______PPP__ WP191954 12.1199 145.950 70 1 12.0774 145.892 9 993 0 0 12.0924 145.885 4 68 993 12.1199 145.950 TC 70 12.2273 145.971 3 70 12.1199 145.950 70 993 120 8 293
1954326N12157 1954 93 WP MM TILDA 1954-11-26 06:00:00 TS 12.2956 145.573 993 tokyo main 1617 1617 OOO______OPO__ jtwc_wp WP191954 12.3000 145.600 70 1 12.2000 145.500 9 993 0 0 0 12.2000 145.500 4 68 993 12.3000 145.600 TC 70 12.4737 145.641 3 70 12.3000 145.600 70 993 120 8 302
1954326N12157 1954 93 WP MM TILDA 1954-11-26 09:00:00 TS 12.5704 145.203 main 1654 1654 PPP______PPP__ WP191954 12.6099 145.230 70 1 12.4873 145.130 9 992 0 0 12.4223 145.130 4 72 990 12.6099 145.230 TC 70 12.6833 145.265 3 70 12.6099 145.230 70 990 120 9 300
1954326N12157 1954 93 WP MM TILDA 1954-11-26 12:00:00 TS 12.7500 144.767 992 tokyo main 1681 1666 OOO______OOO__ jtwc_wp WP191954 12.8000 144.800 70 1 12.7000 144.700 9 992 0 0 0 12.6000 144.700 4 77 987 12.8000 144.800 TC 70 12.8000 144.800 4 70 12.8000 144.800 70 987 120 9 273
1954326N12157 1954 93 WP MM TILDA 1954-11-26 15:00:00 TS 12.6219 144.246 main 1668 1653 PPP______PPP__ WP191954 12.5947 144.317 70 1 12.6024 144.152 9 991 0 0 12.6024 144.152 4 82 984 12.5947 144.317 TC 70 12.7424 144.221 4 74 12.5947 144.317 70 984 120 12 253
1954326N12157 1954 93 WP MM TILDA 1954-11-26 18:00:00 TS 12.3983 143.608 990 tokyo main 1658 1641 OOO______OPO__ jtwc_wp WP191954 12.3000 143.700 70 1 12.4000 143.500 9 990 0 0 0 12.5000 143.500 5 87 981 12.3000 143.700 TC 70 12.5896 143.548 4 78 12.3000 143.700 70 981 120 14 257
1954326N12157 1954 93 WP MM TILDA 1954-11-26 21:00:00 TS 12.2876 142.819 main 1638 1602 PPP______PPP__ WP191954 12.2279 142.858 77 1 12.2925 142.765 9 985 0 0 12.3575 142.772 5 92 977 12.2279 142.858 TC 77 12.3920 142.802 4 82 12.2279 142.858 78 977 150 16 263
1954326N12157 1954 93 WP MM TILDA 1954-11-27 00:00:00 TS 12.2000 142.000 980 tokyo main 1602 1567 OOO______OOO__ jtwc_wp WP191954 12.2000 142.000 85 2 12.2000 142.000 9 980 0 0 0 12.2000 142.000 5 97 974 12.2000 142.000 TC 85 12.2000 142.000 4 86 12.2000 142.000 86 974 180 14 263
1954326N12157 1954 93 WP MM TILDA 1954-11-27 03:00:00 TS 12.1013 141.351 main 1567 1529 PPP______PPP__ WP191954 12.1064 141.445 92 2 12.0995 141.323 9 975 0 0 12.0996 141.273 5 101 970 12.1064 141.445 TC 92 12.0896 141.176 4 94 12.1064 141.445 93 971 180 14 261
1954326N12157 1954 93 WP MM TILDA 1954-11-27 06:00:00 TS 11.9987 140.634 970 tokyo main 1525 1482 OOO______OPO__ jtwc_wp WP191954 12.0000 140.800 100 3 12.0000 140.600 9 970 0 0 0 12.0000 140.500 6 106 967 12.0000 140.800 TC 100 11.9923 140.303 4 103 12.0000 140.800 100 968 180 17 263
1954326N12157 1954 93 WP MM TILDA 1954-11-27 09:00:00 TS 11.8881 139.638 main 1479 1387 PPP______PPP__ WP191954 11.8934 139.687 110 3 11.8999 139.738 9 967 0 0 11.8499 139.622 6 111 963 11.8934 139.687 TC 110 11.8988 139.404 4 111 11.8934 139.687 110 964 210 20 264
1954326N12157 1954 93 WP MM TILDA 1954-11-27 12:00:00 TS 11.7833 138.583 965 tokyo main 1387 1289 OOO______OOO__ jtwc_wp WP191954 11.8000 138.500 120 4 11.8000 138.800 9 965 0 0 0 11.7000 138.700 6 116 960 11.8000 138.500 TC 120 11.8000 138.500 4 120 11.8000 138.500 120 960 240 19 265
1954326N12157 1954 93 WP MM TILDA 1954-11-27 15:00:00 TS 11.7044 137.687 main 1289 1201 PPP______PPP__ WP191954 11.7642 137.613 122 4 11.6998 137.858 9 960 0 0 11.5847 137.808 6 121 956 11.7642 137.613 TC 122 11.6491 137.616 4 120 11.7642 137.613 122 956 210 17 264
1954326N12157 1954 93 WP MM TILDA 1954-11-27 18:00:00 TS 11.6161 136.822 955 tokyo main 1190 1092 OOO______OPO__ jtwc_wp WP191954 11.7000 136.800 125 4 11.6000 136.900 9 955 0 0 0 11.5000 136.900 6 126 952 11.7000 136.800 TC 125 11.4967 136.734 4 120 11.7000 136.800 125 952 180 18 262
1954326N12157 1954 93 WP MM TILDA 1954-11-27 21:00:00 TS 11.4577 135.891 main 1092 991 PPP______PPP__ WP191954 11.4850 135.885 122 4 11.4850 135.912 9 950 0 0 11.4351 135.920 6 131 948 11.4850 135.885 TC 122 11.3710 135.860 4 120 11.4850 135.885 122 948 180 18 261
1954326N12157 1954 93 WP MM TILDA 1954-11-28 00:00:00 TS 11.3333 135.000 945 tokyo main 991 917 OOO______OOO__ jtwc_wp WP191954 11.3000 135.000 120 4 11.4000 135.000 9 945 0 0 0 11.4000 135.000 6 136 945 11.3000 135.000 TC 120 11.3000 135.000 4 120 11.3000 135.000 120 945 180 16 266
1954326N12157 1954 93 WP MM TILDA 1954-11-28 03:00:00 TS 11.3359 134.261 main 917 846 PPP______PPP__ WP191954 11.3045 134.250 120 4 11.3692 134.300 9 942 0 0 11.3767 134.307 6 140 942 11.3045 134.250 TC 120 11.3563 134.207 4 120 11.3045 134.250 120 943 180 15 273
1954326N12157 1954 93 WP MM TILDA 1954-11-28 06:00:00 TS 11.4104 133.520 940 tokyo main 836 755 OOO______OPO__ jtwc_wp WP191954 11.4000 133.500 120 4 11.4000 133.600 9 940 0 0 0 11.4000 133.600 6 145 940 11.4000 133.500 TC 120 11.4623 133.419 4 120 11.4000 133.500 120 941 180 16 277
1954326N12157 1954 93 WP MM TILDA 1954-11-28 09:00:00 TS 11.5365 132.647 main 744 647 PPP______PPP__ WP191954 11.5372 132.645 120 4 11.5224 132.703 9 950 0 0 11.5226 132.645 6 140 942 11.5372 132.645 TC 120 11.5622 132.597 4 120 11.5372 132.645 120 945 210 18 276
1954326N12157 1954 93 WP MM TILDA 1954-11-28 12:00:00 TS 11.6000 131.683 960 tokyo main 647 537 OOO______OOO__ jtwc_wp WP191954 11.6000 131.700 120 4 11.6000 131.700 9 960 0 0 0 11.6000 131.600 6 136 945 11.6000 131.700 TC 120 11.6000 131.700 4 120 11.6000 131.700 120 949 240 19 268
1954326N12157 1954 93 WP MM TILDA 1954-11-28 15:00:00 TS 11.4603 130.665 main 537 416 PPP______PPP__ WP191954 11.4372 130.687 120 4 11.4947 130.672 9 965 0 0 11.4946 130.607 6 131 947 11.4372 130.687 TC 120 11.4611 130.649 4 120 11.4372 130.687 120 954 300 21 260
1954326N12157 1954 93 WP MM TILDA 1954-11-28 18:00:00 TS 11.2431 129.588 970 tokyo main 415 295 OOO______OPO__ jtwc_wp WP191954 11.2000 129.600 120 4 11.3000 129.600 9 970 0 0 0 11.3000 129.600 6 126 950 11.2000 129.600 TC 120 11.2587 129.527 4 120 11.2000 129.600 120 960 360 22 259
1954326N12157 1954 93 WP MM TILDA 1954-11-28 21:00:00 TS 11.0420 128.446 main 284 175 PPP______PPP__ WP191954 11.0201 128.427 120 4 11.0701 128.470 9 975 0 0 11.0699 128.535 6 121 952 11.0201 128.427 TC 120 11.0516 128.392 4 120 11.0201 128.427 120 965 330 22 261
1954326N12157 1954 93 WP MM TILDA 1954-11-29 00:00:00 TS 10.9000 127.350 980 tokyo main 175 77 OOO______OOO__ jtwc_wp WP191954 10.9000 127.300 120 4 10.9000 127.400 9 980 0 0 0 10.9000 127.500 6 116 955 10.9000 127.300 TC 120 10.9000 127.300 4 120 10.9000 127.300 120 971 300 20 265
1954326N12157 1954 93 WP MM TILDA 1954-11-29 03:00:00 TS 10.8809 126.438 main 66 11 PPP______PPP__ WP191954 10.8618 126.370 105 3 10.9042 126.543 9 980 0 0 10.8968 126.608 6 111 959 10.8618 126.370 TC 105 10.8990 126.367 4 106 10.8618 126.370 105 974 300 18 271
1954326N12157 1954 93 WP MM TILDA 1954-11-29 06:00:00 TS 10.9432 125.562 980 tokyo main 24 0 OOO______OPO__ jtwc_wp WP191954 10.9000 125.500 90 2 11.0000 125.700 9 980 0 0 0 11.0000 125.700 6 106 964 10.9000 125.500 TC 90 10.9589 125.474 4 92 10.9000 125.500 90 978 300 18 276
1954326N12157 1954 93 WP MM TILDA 1954-11-29 09:00:00 TS 11.0579 124.611 main 0 0 PPP______PPP__ WP191954 11.0294 124.595 77 1 11.0848 124.687 9 985 0 0 11.1350 124.623 6 101 968 11.0294 124.595 TC 77 11.0395 124.570 4 78 11.0294 124.595 77 981 240 20 276
1954326N12157 1954 93 WP MM TILDA 1954-11-29 12:00:00 TS 11.1500 123.583 990 tokyo main 32 0 OOO______OOO__ jtwc_wp WP191954 11.1000 123.600 65 1 11.2000 123.600 9 990 0 0 0 11.3000 123.500 5 97 973 11.1000 123.600 TC 65 11.1000 123.600 4 65 11.1000 123.600 65 984 180 21 271
1954326N12157 1954 93 WP MM TILDA 1954-11-29 15:00:00 TS 11.0959 122.453 main 0 0 PPP______PPP__ WP191954 10.9000 122.429 65 1 11.3420 122.522 9 992 0 0 11.4495 122.450 5 92 978 10.9000 122.429 TC 65 11.0838 122.456 4 61 10.9000 122.429 65 986 150 23 267
1954326N12157 1954 93 WP MM TILDA 1954-11-29 18:00:00 TS 11.0398 121.275 995 tokyo main 69 66 OOO______OPO__ jtwc_wp WP191954 10.7000 121.200 65 1 11.5000 121.400 9 995 0 0 0 11.6000 121.400 5 87 983 10.7000 121.200 TC 65 11.0389 121.250 4 57 10.7000 121.200 65 989 120 23 271
1954326N12157 1954 93 WP MM TILDA 1954-11-29 21:00:00 TS 11.1552 120.093 main 55 0 PPP______PPP__ WP191954 10.7849 120.006 57 0 11.7475 120.186 9 995 0 0 11.8546 120.309 5 77 987 10.7849 120.006 TC 57 10.9744 120.043 4 53 10.7849 120.006 57 992 120 23 274
1954326N12157 1954 93 WP MM TILDA 1954-11-30 00:00:00 TS 11.2167 118.967 995 tokyo main 43 43 OOO______OOO__ jtwc_wp WP191954 10.9000 118.900 50 0 11.8000 119.000 9 995 0 0 0 11.9000 119.200 4 68 992 10.9000 118.900 TC 50 10.9000 118.900 2 50 10.9000 118.900 50 995 120 21 266
1954326N12157 1954 93 WP MM TILDA 1954-11-30 03:00:00 TS 10.9958 117.961 main 133 133 PPP______PPP__ WP191954 10.8218 117.970 50 0 11.3221 117.939 9 997 0 0 11.3726 118.053 4 58 996 10.8218 117.970 TC 50 10.8146 117.867 2 50 10.8218 117.970 50 998 120 20 256
1954326N12157 1954 93 WP MM TILDA 1954-11-30 06:00:00 TS 10.7377 117.035 1000 tokyo main 189 189 OOO______OPO__ jtwc_wp WP191954 10.7000 117.100 50 0 10.8000 117.000 9 1000 0 0 0 10.8000 117.000 3 48 1001 10.7000 117.100 TC 50 10.7260 116.908 2 50 10.7000 117.100 50 1001 120 18 260
1954326N12157 1954 93 WP MM TILDA 1954-11-30 09:00:00 TS 10.6622 116.126 main 250 250 PPP______PPP__ WP191954 10.6275 116.127 50 0 10.7244 116.186 9 1000 0 0 10.7168 116.171 3 48 1001 10.6275 116.127 TC 50 10.6494 116.020 2 50 10.6275 116.127 50 1001 150 17 268
1954326N12157 1954 93 WP MM TILDA 1954-11-30 12:00:00 TS 10.6667 115.267 1000 tokyo main 314 314 OOO______OOO__ jtwc_wp WP191954 10.6000 115.200 50 0 10.8000 115.400 9 1000 0 0 0 10.8000 115.400 3 48 1002 10.6000 115.200 TC 50 10.6000 115.200 2 50 10.6000 115.200 50 1002 180 17 271
1954326N12157 1954 93 WP MM TILDA 1954-11-30 15:00:00 TS 10.6859 114.437 main 395 395 PPP______PPP__ WP191954 10.6422 114.405 50 0 10.8001 114.485 9 1000 0 0 10.8002 114.478 3 48 1002 10.6422 114.405 TC 50 10.5885 114.443 2 46 10.6422 114.405 50 1002 180 16 272
1954326N12157 1954 93 WP MM TILDA 1954-11-30 18:00:00 TS 10.7229 113.670 1000 tokyo main 459 425 OOO______OPO__ jtwc_wp WP191954 10.7000 113.700 50 0 10.8000 113.600 9 1000 0 0 0 10.8000 113.600 3 48 1002 10.7000 113.700 TC 50 10.6086 113.735 2 42 10.7000 113.700 50 1002 180 14 272
1954326N12157 1954 93 WP MM TILDA 1954-11-30 21:00:00 TS 10.7314 112.996 main 425 363 PPP______PPP__ WP191954 10.6997 113.050 42 0 10.7996 112.878 9 1000 0 0 10.7996 112.920 3 43 1002 10.6997 113.050 TC 42 10.6494 113.060 2 38 10.6997 113.050 42 1002 180 13 271
1954326N12157 1954 93 WP MM TILDA 1954-12-01 00:00:00 TS 10.7412 112.335 1000 tokyo main 353 279 OOO______OOO__ jtwc_wp WP191954 10.7000 112.400 35 0 10.8000 112.200 9 1000 0 0 0 10.8000 112.300 2 38 1003 10.7000 112.400 TC 35 10.7000 112.400 2 35 10.7000 112.400 35 1003 180 14 271
1954326N12157 1954 93 WP MM TILDA 1954-12-01 03:00:00 TS 10.7666 111.586 main 279 201 PPP______P_P__ WP191954 10.7380 111.675 35 0 10.7925 111.435 9 1000 0 0 10.8005 111.622 2 33 1003 10.7380 111.675 TC 35 2 10.7380 111.675 35 1003 150 15 272
1954326N12157 1954 93 WP MM TILDA 1954-12-01 06:00:00 TS 10.8000 110.800 1000 tokyo main 201 137 OOO______O_O__ jtwc_wp WP191954 10.8000 110.900 35 0 10.8000 110.700 9 1000 0 0 0 10.8000 110.900 1 29 1003 10.8000 110.900 TC 35 2 10.8000 110.900 35 1003 120 15 273
1954326N12157 1954 93 WP MM TILDA 1954-12-01 09:00:00 NR 10.8349 110.040 main 128 78 _P____________ WP191954 -1 10.8349 110.040 9 1000 0 0 1 TC 2 13 274
1954326N12157 1954 93 WP MM TILDA 1954-12-01 12:00:00 NR 10.9000 109.500 1000 tokyo main 78 46 _O____________ -1 10.9000 109.500 9 1000 0 0 0 9 279
1954326N12157 1954 93 WP MM TILDA 1954-12-01 15:00:00 NR 10.9774 109.090 main 46 15 _P____________ -1 10.9774 109.090 9 1000 0 0 7 286
1954326N12157 1954 93 WP MM TILDA 1954-12-01 18:00:00 NR 11.1000 108.800 1000 tokyo main 15 0 _O____________ -1 11.1000 108.800 9 1000 0 0 0 6 301
1954326N12157 1954 93 WP MM TILDA 1954-12-01 21:00:00 NR 11.2826 108.583 main 0 0 _P____________ -1 11.2826 108.583 9 1000 0 0 6 316
1954326N12157 1954 93 WP MM TILDA 1954-12-02 00:00:00 NR 11.5000 108.400 1000 tokyo main 0 _O____________ -1 11.5000 108.400 9 1000 0 0 0 6 321

デジタル台風データ・検索

IBTrACS Databaseについて

本データベースは、米国NOAAが公開する1842年以降の世界の熱帯低気圧のベストトラックデータアーカイブInternational Best Track Archive for Climate Stewardship (IBTrACS)を、ウェブで閲覧しやすい形式に変換したものです。

最終更新日:2021-11-26